createdAt,value
2018-06-20T00:00:15.344Z,16.20
2018-06-20T00:02:43.908Z,17.30
2018-06-20T00:05:13.173Z,19.23
2018-06-20T00:07:41.686Z,20.27
2018-06-20T00:10:10.999Z,17.37
2018-06-20T00:12:39.601Z,17.17
2018-06-20T00:15:08.204Z,19.57
2018-06-20T00:17:36.717Z,17.37
2018-06-20T00:20:05.258Z,16.10
2018-06-20T00:22:33.790Z,14.87
2018-06-20T00:25:02.312Z,17.47
2018-06-20T00:27:30.809Z,17.40
2018-06-20T00:29:59.316Z,19.13
2018-06-20T00:32:27.848Z,19.23
2018-06-20T00:34:56.387Z,16.07
2018-06-20T00:37:25.708Z,19.73
2018-06-20T00:39:54.592Z,20.83
2018-06-20T00:42:23.128Z,23.27
2018-06-20T00:44:51.666Z,21.20
2018-06-20T00:47:20.162Z,23.17
2018-06-20T00:49:48.722Z,21.77
2018-06-20T00:52:17.212Z,19.00
2018-06-20T00:54:45.771Z,22.23
2018-06-20T00:57:14.961Z,21.70
2018-06-20T00:59:43.536Z,21.17
2018-06-20T01:02:12.053Z,26.20
2018-06-20T01:04:40.590Z,19.43
2018-06-20T01:07:09.136Z,25.87
2018-06-20T01:09:37.644Z,27.43
2018-06-20T01:12:06.362Z,21.00
2018-06-20T01:14:34.876Z,20.17
2018-06-20T01:17:03.504Z,25.10
2018-06-20T01:19:31.971Z,22.87
2018-06-20T01:22:00.620Z,21.00
2018-06-20T01:24:29.934Z,22.60
2018-06-20T01:26:58.438Z,23.70
2018-06-20T01:29:26.969Z,20.40
2018-06-20T01:31:55.744Z,20.43
2018-06-20T01:34:24.213Z,20.53
2018-06-20T01:36:52.751Z,22.23
2018-06-20T01:39:21.210Z,24.80
2018-06-20T01:41:49.988Z,24.43
2018-06-20T01:44:18.527Z,23.67
2018-06-20T01:46:47.029Z,27.93
2018-06-20T01:49:16.374Z,25.77
2018-06-20T01:51:44.885Z,26.40
2018-06-20T01:54:13.495Z,28.47
2018-06-20T01:56:41.986Z,29.20
2018-06-20T01:59:10.735Z,26.73
2018-06-20T02:01:39.634Z,27.20
2018-06-20T02:04:08.279Z,32.73
2018-06-20T02:06:36.760Z,32.43
2018-06-20T02:09:07.979Z,31.83
2018-06-20T02:11:36.484Z,28.20
2018-06-20T02:14:04.979Z,28.07
2018-06-20T02:16:36.439Z,28.13
2018-06-20T02:19:04.945Z,29.80
2018-06-20T02:21:33.444Z,30.30
2018-06-20T02:24:01.996Z,35.80
2018-06-20T02:26:30.503Z,31.07
2018-06-20T02:28:59.074Z,27.77
2018-06-20T02:31:28.314Z,28.23
2018-06-20T02:33:57.159Z,34.37
2018-06-20T02:36:31.025Z,32.93
2018-06-20T02:39:00.139Z,29.80
2018-06-20T02:41:28.648Z,30.77
2018-06-20T02:43:57.294Z,31.70
2018-06-20T02:46:25.792Z,34.73
2018-06-20T02:48:54.397Z,33.33
2018-06-20T02:51:22.907Z,34.53
2018-06-20T02:53:51.524Z,30.57
2018-06-20T02:56:21.167Z,32.80
2018-06-20T02:58:49.732Z,33.30
2018-06-20T03:01:18.214Z,35.23
2018-06-20T03:03:53.374Z,31.67
2018-06-20T03:06:21.910Z,32.90
2018-06-20T03:08:56.346Z,32.90
2018-06-20T03:11:25.291Z,34.17
2018-06-20T03:13:53.791Z,32.13
2018-06-20T03:16:22.332Z,33.07
2018-06-20T03:18:50.867Z,36.47
2018-06-20T03:21:19.406Z,35.53
2018-06-20T03:23:47.912Z,35.20
2018-06-20T03:26:16.645Z,35.83
2018-06-20T03:28:45.174Z,36.50
2018-06-20T03:31:13.699Z,35.93
2018-06-20T03:33:42.205Z,31.93
2018-06-20T03:36:10.712Z,34.80
2018-06-20T03:38:39.256Z,35.53
2018-06-20T03:41:07.764Z,38.70
2018-06-20T03:43:36.348Z,35.00
2018-06-20T03:46:04.855Z,40.50
2018-06-20T03:48:33.421Z,40.13
2018-06-20T03:51:02.150Z,42.83
2018-06-20T03:53:30.792Z,37.53
2018-06-20T03:55:59.368Z,43.10
2018-06-20T03:58:27.848Z,42.60
2018-06-20T04:00:56.356Z,42.60
2018-06-20T04:03:24.933Z,43.03
2018-06-20T04:05:53.534Z,38.00
2018-06-20T04:08:22.748Z,36.47
2018-06-20T04:10:51.369Z,38.57
2018-06-20T04:13:19.915Z,40.47
2018-06-20T04:15:48.419Z,37.10
2018-06-20T04:18:17.271Z,39.23
2018-06-20T04:20:45.720Z,38.97
2018-06-20T04:23:14.237Z,39.83
2018-06-20T04:25:42.774Z,41.80
2018-06-20T04:28:11.494Z,39.83
2018-06-20T04:30:40.108Z,42.13
2018-06-20T04:33:08.636Z,37.77
2018-06-20T04:35:37.274Z,36.37
2018-06-20T04:38:05.778Z,41.83
2018-06-20T04:40:34.673Z,40.03
2018-06-20T04:43:03.172Z,36.63
2018-06-20T04:45:31.686Z,38.13
2018-06-20T04:48:00.233Z,42.10
2018-06-20T04:50:28.774Z,39.50
2018-06-20T04:52:57.260Z,38.20
2018-06-20T04:55:25.801Z,41.53
2018-06-20T04:57:54.892Z,38.43
2018-06-20T05:00:23.749Z,40.67
2018-06-20T05:02:52.285Z,37.80
2018-06-20T05:05:20.867Z,40.77
2018-06-20T05:07:49.410Z,40.80
2018-06-20T05:10:17.982Z,39.23
2018-06-20T05:12:46.486Z,39.77
2018-06-20T05:15:15.024Z,39.33
2018-06-20T05:17:43.841Z,40.10
2018-06-20T05:20:12.409Z,38.23
2018-06-20T05:22:40.991Z,37.13
2018-06-20T05:25:09.508Z,38.87
2018-06-20T05:27:38.145Z,37.83
2018-06-20T05:30:06.833Z,35.97
2018-06-20T05:32:35.351Z,36.30
2018-06-20T05:35:03.898Z,38.13
2018-06-20T05:37:32.733Z,35.97
2018-06-20T05:40:01.349Z,34.57
2018-06-20T05:42:29.926Z,32.10
2018-06-20T05:44:58.987Z,33.60
2018-06-20T05:47:27.655Z,30.87
2018-06-20T05:49:56.816Z,32.30
2018-06-20T05:52:25.412Z,31.27
2018-06-20T05:54:53.961Z,35.10
2018-06-20T05:57:22.458Z,28.37
2018-06-20T05:59:51.051Z,35.23
2018-06-20T06:02:19.737Z,30.43
2018-06-20T06:04:48.232Z,33.13
2018-06-20T06:07:16.755Z,32.23
2018-06-20T06:09:46.038Z,30.60
2018-06-20T06:12:14.596Z,30.93
2018-06-20T06:14:43.069Z,27.20
2018-06-20T06:17:11.621Z,36.57
2018-06-20T06:19:40.191Z,37.83
2018-06-20T06:22:08.667Z,34.70
2018-06-20T06:24:37.188Z,31.20
2018-06-20T06:27:05.699Z,35.57
2018-06-20T06:29:34.274Z,31.13
2018-06-20T06:32:03.848Z,32.17
2018-06-20T06:34:32.641Z,32.83
